sensor_id;sensor_type;location;lat;lon;timestamp;P1;durP1;ratioP1;P2;durP2;ratioP2
17858;SDS011;35426;30.698;104.050;2022-08-18T00:01:30;19.83;;;14.52;;
17858;SDS011;35426;30.698;104.050;2022-08-18T00:04:07;19.02;;;14.18;;
17858;SDS011;35426;30.698;104.050;2022-08-18T00:07:01;18.88;;;14.27;;
17858;SDS011;35426;30.698;104.050;2022-08-18T00:09:36;20.50;;;14.32;;
17858;SDS011;35426;30.698;104.050;2022-08-18T00:12:16;20.95;;;14.20;;
17858;SDS011;35426;30.698;104.050;2022-08-18T00:14:53;23.65;;;14.60;;
17858;SDS011;35426;30.698;104.050;2022-08-18T00:17:30;27.75;;;14.73;;
17858;SDS011;35426;30.698;104.050;2022-08-18T00:20:10;22.00;;;14.70;;
17858;SDS011;35426;30.698;104.050;2022-08-18T00:22:47;17.58;;;15.25;;
17858;SDS011;35426;30.698;104.050;2022-08-18T00:25:21;22.67;;;14.80;;
17858;SDS011;35426;30.698;104.050;2022-08-18T00:27:58;28.98;;;16.15;;
17858;SDS011;35426;30.698;104.050;2022-08-18T00:30:33;21.88;;;16.85;;
17858;SDS011;35426;30.698;104.050;2022-08-18T00:33:06;24.63;;;17.17;;
17858;SDS011;35426;30.698;104.050;2022-08-18T00:35:39;29.40;;;18.80;;
17858;SDS011;35426;30.698;104.050;2022-08-18T00:38:14;29.77;;;21.73;;
17858;SDS011;35426;30.698;104.050;2022-08-18T00:40:53;31.60;;;21.90;;
17858;SDS011;35426;30.698;104.050;2022-08-18T00:43:51;30.55;;;22.58;;
17858;SDS011;35426;30.698;104.050;2022-08-18T00:46:27;32.22;;;23.75;;
17858;SDS011;35426;30.698;104.050;2022-08-18T00:49:02;34.15;;;23.58;;
17858;SDS011;35426;30.698;104.050;2022-08-18T00:51:37;36.67;;;24.30;;
17858;SDS011;35426;30.698;104.050;2022-08-18T00:54:14;32.28;;;23.52;;
17858;SDS011;35426;30.698;104.050;2022-08-18T00:56:51;39.45;;;28.23;;
17858;SDS011;35426;30.698;104.050;2022-08-18T00:59:29;37.13;;;25.58;;
17858;SDS011;35426;30.698;104.050;2022-08-18T01:02:06;38.25;;;25.90;;
17858;SDS011;35426;30.698;104.050;2022-08-18T01:04:44;44.75;;;29.00;;
17858;SDS011;35426;30.698;104.050;2022-08-18T01:07:23;39.45;;;26.58;;
17858;SDS011;35426;30.698;104.050;2022-08-18T01:10:03;40.65;;;27.38;;
17858;SDS011;35426;30.698;104.050;2022-08-18T01:12:37;28.27;;;23.20;;
17858;SDS011;35426;30.698;104.050;2022-08-18T01:15:16;31.67;;;22.23;;
17858;SDS011;35426;30.698;104.050;2022-08-18T01:17:57;28.35;;;21.83;;
17858;SDS011;35426;30.698;104.050;2022-08-18T01:21:04;32.95;;;22.83;;
17858;SDS011;35426;30.698;104.050;2022-08-18T01:24:04;27.88;;;21.23;;
17858;SDS011;35426;30.698;104.050;2022-08-18T01:26:48;26.00;;;21.33;;
17858;SDS011;35426;30.698;104.050;2022-08-18T01:29:21;30.25;;;23.50;;
17858;SDS011;35426;30.698;104.050;2022-08-18T01:31:58;30.10;;;22.33;;
17858;SDS011;35426;30.698;104.050;2022-08-18T01:34:32;26.55;;;21.70;;
17858;SDS011;35426;30.698;104.050;2022-08-18T01:37:06;30.83;;;22.17;;
17858;SDS011;35426;30.698;104.050;2022-08-18T01:39:43;27.27;;;22.15;;
17858;SDS011;35426;30.698;104.050;2022-08-18T01:42:50;32.03;;;21.95;;
17858;SDS011;35426;30.698;104.050;2022-08-18T01:45:26;33.83;;;23.60;;
17858;SDS011;35426;30.698;104.050;2022-08-18T01:48:01;36.33;;;25.30;;
17858;SDS011;35426;30.698;104.050;2022-08-18T01:50:35;37.50;;;28.17;;
17858;SDS011;35426;30.698;104.050;2022-08-18T01:53:10;42.60;;;27.73;;
17858;SDS011;35426;30.698;104.050;2022-08-18T01:55:46;44.10;;;29.00;;
17858;SDS011;35426;30.698;104.050;2022-08-18T01:58:20;35.22;;;25.92;;
17858;SDS011;35426;30.698;104.050;2022-08-18T02:00:59;38.50;;;25.92;;
17858;SDS011;35426;30.698;104.050;2022-08-18T02:03:34;38.85;;;26.85;;
17858;SDS011;35426;30.698;104.050;2022-08-18T02:06:11;40.30;;;28.95;;
17858;SDS011;35426;30.698;104.050;2022-08-18T02:09:00;35.58;;;25.00;;
17858;SDS011;35426;30.698;104.050;2022-08-18T02:11:36;39.03;;;28.65;;
17858;SDS011;35426;30.698;104.050;2022-08-18T02:14:10;36.65;;;27.42;;
17858;SDS011;35426;30.698;104.050;2022-08-18T02:16:51;35.60;;;27.00;;
17858;SDS011;35426;30.698;104.050;2022-08-18T02:19:31;34.90;;;25.77;;
17858;SDS011;35426;30.698;104.050;2022-08-18T02:22:07;39.00;;;25.88;;
17858;SDS011;35426;30.698;104.050;2022-08-18T02:24:41;38.08;;;25.55;;
17858;SDS011;35426;30.698;104.050;2022-08-18T02:27:25;36.00;;;25.58;;
17858;SDS011;35426;30.698;104.050;2022-08-18T02:30:09;39.05;;;25.92;;
17858;SDS011;35426;30.698;104.050;2022-08-18T02:32:45;35.03;;;24.35;;
17858;SDS011;35426;30.698;104.050;2022-08-18T02:35:19;29.88;;;24.70;;
17858;SDS011;35426;30.698;104.050;2022-08-18T02:37:53;40.63;;;27.27;;
17858;SDS011;35426;30.698;104.050;2022-08-18T02:40:31;30.20;;;23.50;;
17858;SDS011;35426;30.698;104.050;2022-08-18T02:43:07;33.05;;;25.50;;
17858;SDS011;35426;30.698;104.050;2022-08-18T02:45:42;30.10;;;22.83;;
17858;SDS011;35426;30.698;104.050;2022-08-18T02:48:16;31.92;;;23.17;;
17858;SDS011;35426;30.698;104.050;2022-08-18T02:51:01;37.92;;;27.75;;
17858;SDS011;35426;30.698;104.050;2022-08-18T02:53:37;36.60;;;26.58;;
17858;SDS011;35426;30.698;104.050;2022-08-18T02:56:13;31.10;;;24.83;;
17858;SDS011;35426;30.698;104.050;2022-08-18T02:59:11;34.38;;;27.13;;
17858;SDS011;35426;30.698;104.050;2022-08-18T03:01:52;37.70;;;26.63;;
17858;SDS011;35426;30.698;104.050;2022-08-18T03:04:27;33.05;;;24.92;;
17858;SDS011;35426;30.698;104.050;2022-08-18T03:07:02;30.88;;;25.20;;
17858;SDS011;35426;30.698;104.050;2022-08-18T03:09:38;39.08;;;26.75;;
17858;SDS011;35426;30.698;104.050;2022-08-18T03:12:12;33.53;;;26.65;;
17858;SDS011;35426;30.698;104.050;2022-08-18T03:14:48;36.78;;;25.60;;
17858;SDS011;35426;30.698;104.050;2022-08-18T03:17:22;29.38;;;23.88;;
17858;SDS011;35426;30.698;104.050;2022-08-18T03:19:56;34.53;;;24.17;;
17858;SDS011;35426;30.698;104.050;2022-08-18T03:22:31;29.45;;;23.83;;
17858;SDS011;35426;30.698;104.050;2022-08-18T03:25:06;31.88;;;23.05;;
17858;SDS011;35426;30.698;104.050;2022-08-18T03:27:40;31.65;;;24.67;;
17858;SDS011;35426;30.698;104.050;2022-08-18T03:30:16;30.20;;;23.30;;
17858;SDS011;35426;30.698;104.050;2022-08-18T03:32:51;32.47;;;23.45;;
17858;SDS011;35426;30.698;104.050;2022-08-18T03:35:24;29.30;;;24.77;;
17858;SDS011;35426;30.698;104.050;2022-08-18T03:38:02;30.00;;;22.88;;
17858;SDS011;35426;30.698;104.050;2022-08-18T03:40:36;34.97;;;24.70;;
17858;SDS011;35426;30.698;104.050;2022-08-18T03:43:11;32.33;;;23.80;;
17858;SDS011;35426;30.698;104.050;2022-08-18T03:46:07;27.17;;;23.30;;
17858;SDS011;35426;30.698;104.050;2022-08-18T03:48:42;33.60;;;23.35;;
17858;SDS011;35426;30.698;104.050;2022-08-18T03:51:17;32.92;;;23.85;;
17858;SDS011;35426;30.698;104.050;2022-08-18T03:53:52;35.08;;;24.98;;
17858;SDS011;35426;30.698;104.050;2022-08-18T03:56:29;32.22;;;24.05;;
17858;SDS011;35426;30.698;104.050;2022-08-18T03:59:08;32.78;;;23.88;;
17858;SDS011;35426;30.698;104.050;2022-08-18T04:01:46;30.35;;;24.13;;
17858;SDS011;35426;30.698;104.050;2022-08-18T04:04:23;28.40;;;22.85;;
17858;SDS011;35426;30.698;104.050;2022-08-18T04:06:57;29.58;;;23.83;;
17858;SDS011;35426;30.698;104.050;2022-08-18T04:09:34;32.65;;;23.67;;
17858;SDS011;35426;30.698;104.050;2022-08-18T04:12:10;31.92;;;24.23;;
17858;SDS011;35426;30.698;104.050;2022-08-18T04:14:46;32.63;;;23.75;;
17858;SDS011;35426;30.698;104.050;2022-08-18T04:17:23;38.25;;;25.27;;
17858;SDS011;35426;30.698;104.050;2022-08-18T04:19:57;30.38;;;24.42;;
17858;SDS011;35426;30.698;104.050;2022-08-18T04:22:30;30.08;;;24.27;;
17858;SDS011;35426;30.698;104.050;2022-08-18T04:25:04;28.05;;;23.67;;
17858;SDS011;35426;30.698;104.050;2022-08-18T04:27:39;31.95;;;25.42;;
17858;SDS011;35426;30.698;104.050;2022-08-18T04:30:12;29.98;;;24.13;;
17858;SDS011;35426;30.698;104.050;2022-08-18T04:32:49;36.38;;;27.80;;
17858;SDS011;35426;30.698;104.050;2022-08-18T04:35:23;36.35;;;26.00;;
17858;SDS011;35426;30.698;104.050;2022-08-18T04:37:57;32.38;;;25.88;;
17858;SDS011;35426;30.698;104.050;2022-08-18T04:40:31;33.40;;;25.27;;
17858;SDS011;35426;30.698;104.050;2022-08-18T04:43:05;29.52;;;24.70;;
17858;SDS011;35426;30.698;104.050;2022-08-18T04:45:43;33.00;;;24.98;;
17858;SDS011;35426;30.698;104.050;2022-08-18T04:48:21;33.47;;;26.13;;
17858;SDS011;35426;30.698;104.050;2022-08-18T04:51:02;40.30;;;26.33;;
17858;SDS011;35426;30.698;104.050;2022-08-18T04:53:38;31.85;;;25.67;;
17858;SDS011;35426;30.698;104.050;2022-08-18T04:56:18;40.15;;;28.63;;
17858;SDS011;35426;30.698;104.050;2022-08-18T04:59:01;34.42;;;25.85;;
17858;SDS011;35426;30.698;104.050;2022-08-18T05:01:38;38.15;;;28.23;;
17858;SDS011;35426;30.698;104.050;2022-08-18T05:04:16;33.80;;;26.35;;
17858;SDS011;35426;30.698;104.050;2022-08-18T05:06:50;37.65;;;27.00;;
17858;SDS011;35426;30.698;104.050;2022-08-18T05:09:23;37.63;;;28.92;;
17858;SDS011;35426;30.698;104.050;2022-08-18T05:12:08;39.90;;;27.17;;
17858;SDS011;35426;30.698;104.050;2022-08-18T05:14:43;35.85;;;26.95;;
17858;SDS011;35426;30.698;104.050;2022-08-18T05:17:16;39.40;;;26.85;;
17858;SDS011;35426;30.698;104.050;2022-08-18T05:19:52;33.97;;;27.67;;
17858;SDS011;35426;30.698;104.050;2022-08-18T05:22:26;39.50;;;29.83;;
17858;SDS011;35426;30.698;104.050;2022-08-18T05:25:00;38.60;;;31.38;;
17858;SDS011;35426;30.698;104.050;2022-08-18T05:27:34;38.80;;;29.77;;
17858;SDS011;35426;30.698;104.050;2022-08-18T05:30:11;40.47;;;29.77;;
17858;SDS011;35426;30.698;104.050;2022-08-18T05:32:44;41.88;;;30.08;;
17858;SDS011;35426;30.698;104.050;2022-08-18T05:35:22;37.15;;;30.85;;
17858;SDS011;35426;30.698;104.050;2022-08-18T05:38:07;41.13;;;29.20;;
17858;SDS011;35426;30.698;104.050;2022-08-18T05:41:03;36.03;;;26.42;;
17858;SDS011;35426;30.698;104.050;2022-08-18T05:43:41;36.72;;;28.00;;
17858;SDS011;35426;30.698;104.050;2022-08-18T05:46:20;36.28;;;28.73;;
17858;SDS011;35426;30.698;104.050;2022-08-18T05:49:08;37.75;;;27.70;;
17858;SDS011;35426;30.698;104.050;2022-08-18T05:51:47;34.15;;;28.10;;
17858;SDS011;35426;30.698;104.050;2022-08-18T05:54:22;35.55;;;28.25;;
17858;SDS011;35426;30.698;104.050;2022-08-18T05:57:18;38.13;;;28.67;;
17858;SDS011;35426;30.698;104.050;2022-08-18T05:59:55;38.83;;;29.88;;
17858;SDS011;35426;30.698;104.050;2022-08-18T06:02:41;39.67;;;29.02;;
17858;SDS011;35426;30.698;104.050;2022-08-18T06:05:19;39.50;;;28.35;;
17858;SDS011;35426;30.698;104.050;2022-08-18T06:08:00;37.78;;;29.38;;
17858;SDS011;35426;30.698;104.050;2022-08-18T06:10:40;34.17;;;27.70;;
17858;SDS011;35426;30.698;104.050;2022-08-18T06:13:26;34.20;;;27.52;;
17858;SDS011;35426;30.698;104.050;2022-08-18T06:16:10;38.28;;;28.40;;
17858;SDS011;35426;30.698;104.050;2022-08-18T06:18:52;35.50;;;28.48;;
17858;SDS011;35426;30.698;104.050;2022-08-18T06:21:36;30.52;;;26.33;;
17858;SDS011;35426;30.698;104.050;2022-08-18T06:24:19;37.70;;;27.58;;
17858;SDS011;35426;30.698;104.050;2022-08-18T06:27:02;39.85;;;27.73;;
17858;SDS011;35426;30.698;104.050;2022-08-18T06:30:00;35.67;;;26.55;;
17858;SDS011;35426;30.698;104.050;2022-08-18T06:32:47;37.25;;;28.27;;
17858;SDS011;35426;30.698;104.050;2022-08-18T06:35:35;44.55;;;29.13;;
17858;SDS011;35426;30.698;104.050;2022-08-18T06:38:22;33.53;;;27.58;;
17858;SDS011;35426;30.698;104.050;2022-08-18T06:41:16;33.80;;;25.65;;
17858;SDS011;35426;30.698;104.050;2022-08-18T06:44:09;33.80;;;25.40;;
17858;SDS011;35426;30.698;104.050;2022-08-18T06:46:46;37.63;;;27.15;;
17858;SDS011;35426;30.698;104.050;2022-08-18T06:49:30;37.28;;;26.25;;
17858;SDS011;35426;30.698;104.050;2022-08-18T06:52:21;31.58;;;25.25;;
17858;SDS011;35426;30.698;104.050;2022-08-18T06:54:58;35.05;;;25.60;;
17858;SDS011;35426;30.698;104.050;2022-08-18T06:57:36;34.58;;;26.20;;
17858;SDS011;35426;30.698;104.050;2022-08-18T07:00:19;31.00;;;25.13;;
17858;SDS011;35426;30.698;104.050;2022-08-18T07:03:00;33.15;;;25.92;;
17858;SDS011;35426;30.698;104.050;2022-08-18T07:05:54;33.50;;;25.38;;
17858;SDS011;35426;30.698;104.050;2022-08-18T07:08:31;30.65;;;24.65;;
17858;SDS011;35426;30.698;104.050;2022-08-18T07:11:11;31.73;;;24.58;;
17858;SDS011;35426;30.698;104.050;2022-08-18T07:13:52;31.58;;;25.73;;
17858;SDS011;35426;30.698;104.050;2022-08-18T07:16:43;31.40;;;25.73;;
17858;SDS011;35426;30.698;104.050;2022-08-18T07:19:27;39.38;;;25.40;;
17858;SDS011;35426;30.698;104.050;2022-08-18T07:22:03;32.72;;;25.38;;
17858;SDS011;35426;30.698;104.050;2022-08-18T07:24:40;36.92;;;25.90;;
17858;SDS011;35426;30.698;104.050;2022-08-18T07:27:16;31.40;;;24.38;;
17858;SDS011;35426;30.698;104.050;2022-08-18T07:30:01;35.25;;;23.88;;
17858;SDS011;35426;30.698;104.050;2022-08-18T07:33:03;32.25;;;23.95;;
17858;SDS011;35426;30.698;104.050;2022-08-18T07:35:45;30.35;;;22.52;;
17858;SDS011;35426;30.698;104.050;2022-08-18T07:38:22;26.00;;;20.85;;
17858;SDS011;35426;30.698;104.050;2022-08-18T07:41:18;26.27;;;22.02;;
17858;SDS011;35426;30.698;104.050;2022-08-18T07:43:57;25.50;;;22.58;;
17858;SDS011;35426;30.698;104.050;2022-08-18T07:46:42;28.17;;;22.13;;
17858;SDS011;35426;30.698;104.050;2022-08-18T07:49:23;27.80;;;22.10;;
17858;SDS011;35426;30.698;104.050;2022-08-18T07:52:04;29.85;;;22.98;;
17858;SDS011;35426;30.698;104.050;2022-08-18T07:55:04;26.05;;;21.83;;
17858;SDS011;35426;30.698;104.050;2022-08-18T07:57:45;26.15;;;19.55;;
17858;SDS011;35426;30.698;104.050;2022-08-18T08:00:28;26.40;;;20.35;;
17858;SDS011;35426;30.698;104.050;2022-08-18T08:03:33;25.20;;;19.55;;
17858;SDS011;35426;30.698;104.050;2022-08-18T08:06:15;24.38;;;19.75;;
17858;SDS011;35426;30.698;104.050;2022-08-18T08:08:58;25.25;;;19.00;;
17858;SDS011;35426;30.698;104.050;2022-08-18T08:11:40;20.23;;;18.02;;
17858;SDS011;35426;30.698;104.050;2022-08-18T08:14:28;22.05;;;17.20;;
17858;SDS011;35426;30.698;104.050;2022-08-18T08:17:17;22.70;;;17.17;;
17858;SDS011;35426;30.698;104.050;2022-08-18T08:23:05;19.63;;;15.32;;
17858;SDS011;35426;30.698;104.050;2022-08-18T08:25:49;19.73;;;15.73;;
17858;SDS011;35426;30.698;104.050;2022-08-18T08:28:40;19.33;;;15.85;;
17858;SDS011;35426;30.698;104.050;2022-08-18T08:31:24;17.63;;;15.70;;
17858;SDS011;35426;30.698;104.050;2022-08-18T08:34:07;19.45;;;15.80;;
17858;SDS011;35426;30.698;104.050;2022-08-18T08:36:47;22.52;;;19.48;;
17858;SDS011;35426;30.698;104.050;2022-08-18T08:39:33;20.50;;;17.83;;
17858;SDS011;35426;30.698;104.050;2022-08-18T08:42:11;23.17;;;18.30;;
17858;SDS011;35426;30.698;104.050;2022-08-18T08:45:01;20.52;;;18.27;;
17858;SDS011;35426;30.698;104.050;2022-08-18T08:47:41;23.20;;;18.77;;
17858;SDS011;35426;30.698;104.050;2022-08-18T08:50:20;22.67;;;18.67;;
17858;SDS011;35426;30.698;104.050;2022-08-18T08:52:58;25.02;;;18.73;;
17858;SDS011;35426;30.698;104.050;2022-08-18T08:55:34;22.83;;;19.08;;
17858;SDS011;35426;30.698;104.050;2022-08-18T08:58:15;23.05;;;18.90;;
17858;SDS011;35426;30.698;104.050;2022-08-18T09:00:52;24.25;;;19.30;;
17858;SDS011;35426;30.698;104.050;2022-08-18T09:03:30;25.33;;;20.27;;
17858;SDS011;35426;30.698;104.050;2022-08-18T09:06:15;23.27;;;18.48;;
17858;SDS011;35426;30.698;104.050;2022-08-18T09:09:01;26.27;;;20.40;;
17858;SDS011;35426;30.698;104.050;2022-08-18T09:11:57;25.83;;;19.98;;
17858;SDS011;35426;30.698;104.050;2022-08-18T09:15:00;26.25;;;20.10;;
17858;SDS011;35426;30.698;104.050;2022-08-18T09:18:07;27.25;;;20.58;;
17858;SDS011;35426;30.698;104.050;2022-08-18T09:21:09;26.27;;;19.98;;
17858;SDS011;35426;30.698;104.050;2022-08-18T09:23:53;28.83;;;19.95;;
17858;SDS011;35426;30.698;104.050;2022-08-18T09:26:41;23.95;;;19.23;;
17858;SDS011;35426;30.698;104.050;2022-08-18T09:29:20;24.35;;;19.33;;
17858;SDS011;35426;30.698;104.050;2022-08-18T09:35:24;25.13;;;20.75;;
17858;SDS011;35426;30.698;104.050;2022-08-18T09:38:28;25.42;;;19.92;;
17858;SDS011;35426;30.698;104.050;2022-08-18T09:41:20;24.52;;;19.25;;
17858;SDS011;35426;30.698;104.050;2022-08-18T09:44:06;24.65;;;19.08;;
17858;SDS011;35426;30.698;104.050;2022-08-18T09:46:54;24.08;;;19.58;;
17858;SDS011;35426;30.698;104.050;2022-08-18T09:49:40;24.88;;;20.10;;
17858;SDS011;35426;30.698;104.050;2022-08-18T09:55:54;24.80;;;19.80;;
17858;SDS011;35426;30.698;104.050;2022-08-18T09:58:49;26.75;;;19.65;;
17858;SDS011;35426;30.698;104.050;2022-08-18T10:01:40;25.85;;;20.48;;
17858;SDS011;35426;30.698;104.050;2022-08-18T10:04:26;26.58;;;20.85;;
17858;SDS011;35426;30.698;104.050;2022-08-18T10:07:28;27.45;;;19.50;;
17858;SDS011;35426;30.698;104.050;2022-08-18T10:10:12;22.00;;;19.58;;
17858;SDS011;35426;30.698;104.050;2022-08-18T10:13:14;25.15;;;19.48;;
17858;SDS011;35426;30.698;104.050;2022-08-18T10:15:57;23.88;;;20.20;;
17858;SDS011;35426;30.698;104.050;2022-08-18T10:18:47;27.02;;;20.90;;
17858;SDS011;35426;30.698;104.050;2022-08-18T10:21:28;24.25;;;19.35;;
17858;SDS011;35426;30.698;104.050;2022-08-18T10:24:27;25.40;;;19.58;;
17858;SDS011;35426;30.698;104.050;2022-08-18T10:27:05;25.63;;;20.13;;
17858;SDS011;35426;30.698;104.050;2022-08-18T10:30:00;28.17;;;20.88;;
17858;SDS011;35426;30.698;104.050;2022-08-18T10:32:59;27.42;;;20.30;;
17858;SDS011;35426;30.698;104.050;2022-08-18T10:38:40;23.80;;;20.27;;
17858;SDS011;35426;30.698;104.050;2022-08-18T10:41:28;25.98;;;20.70;;
17858;SDS011;35426;30.698;104.050;2022-08-18T10:44:02;28.35;;;21.15;;
17858;SDS011;35426;30.698;104.050;2022-08-18T10:46:56;31.85;;;21.77;;
17858;SDS011;35426;30.698;104.050;2022-08-18T10:49:39;25.92;;;21.45;;
17858;SDS011;35426;30.698;104.050;2022-08-18T10:52:25;27.52;;;22.55;;
17858;SDS011;35426;30.698;104.050;2022-08-18T10:55:42;27.55;;;22.23;;
17858;SDS011;35426;30.698;104.050;2022-08-18T10:58:33;28.60;;;22.00;;
17858;SDS011;35426;30.698;104.050;2022-08-18T11:01:24;30.92;;;22.95;;
17858;SDS011;35426;30.698;104.050;2022-08-18T11:04:21;34.15;;;25.08;;
17858;SDS011;35426;30.698;104.050;2022-08-18T11:07:07;35.35;;;25.45;;
17858;SDS011;35426;30.698;104.050;2022-08-18T11:09:47;58.65;;;31.88;;
17858;SDS011;35426;30.698;104.050;2022-08-18T11:12:52;34.88;;;23.65;;
17858;SDS011;35426;30.698;104.050;2022-08-18T11:15:57;35.38;;;22.67;;
17858;SDS011;35426;30.698;104.050;2022-08-18T11:18:41;29.65;;;23.58;;
17858;SDS011;35426;30.698;104.050;2022-08-18T11:21:22;30.50;;;22.98;;
17858;SDS011;35426;30.698;104.050;2022-08-18T11:24:11;32.88;;;24.08;;
17858;SDS011;35426;30.698;104.050;2022-08-18T11:26:49;28.55;;;22.75;;
17858;SDS011;35426;30.698;104.050;2022-08-18T11:29:42;34.25;;;23.30;;
17858;SDS011;35426;30.698;104.050;2022-08-18T11:32:19;33.40;;;23.38;;
17858;SDS011;35426;30.698;104.050;2022-08-18T11:34:59;31.02;;;22.73;;
17858;SDS011;35426;30.698;104.050;2022-08-18T11:37:37;32.13;;;22.98;;
17858;SDS011;35426;30.698;104.050;2022-08-18T11:40:23;33.50;;;22.67;;
17858;SDS011;35426;30.698;104.050;2022-08-18T11:43:25;36.58;;;24.10;;
17858;SDS011;35426;30.698;104.050;2022-08-18T11:46:13;34.75;;;24.10;;
17858;SDS011;35426;30.698;104.050;2022-08-18T11:48:59;35.17;;;26.00;;
17858;SDS011;35426;30.698;104.050;2022-08-18T11:51:55;33.85;;;24.00;;
17858;SDS011;35426;30.698;104.050;2022-08-18T11:54:34;36.03;;;24.33;;
17858;SDS011;35426;30.698;104.050;2022-08-18T11:57:39;34.08;;;25.25;;
17858;SDS011;35426;30.698;104.050;2022-08-18T12:00:39;34.60;;;25.63;;
17858;SDS011;35426;30.698;104.050;2022-08-18T12:03:36;33.78;;;26.30;;
17858;SDS011;35426;30.698;104.050;2022-08-18T12:06:20;34.80;;;25.70;;
17858;SDS011;35426;30.698;104.050;2022-08-18T12:08:57;37.88;;;26.67;;
17858;SDS011;35426;30.698;104.050;2022-08-18T12:11:33;38.75;;;26.35;;
17858;SDS011;35426;30.698;104.050;2022-08-18T12:14:18;38.53;;;25.90;;
17858;SDS011;35426;30.698;104.050;2022-08-18T12:17:06;38.38;;;27.20;;
17858;SDS011;35426;30.698;104.050;2022-08-18T12:19:40;38.55;;;27.80;;
17858;SDS011;35426;30.698;104.050;2022-08-18T12:22:16;42.65;;;27.20;;
17858;SDS011;35426;30.698;104.050;2022-08-18T12:24:51;33.05;;;25.88;;
17858;SDS011;35426;30.698;104.050;2022-08-18T12:27:26;37.22;;;26.58;;
17858;SDS011;35426;30.698;104.050;2022-08-18T12:30:01;38.25;;;27.85;;
17858;SDS011;35426;30.698;104.050;2022-08-18T12:32:45;38.05;;;27.00;;
17858;SDS011;35426;30.698;104.050;2022-08-18T12:35:39;32.35;;;25.58;;
17858;SDS011;35426;30.698;104.050;2022-08-18T12:38:13;36.58;;;26.08;;
17858;SDS011;35426;30.698;104.050;2022-08-18T12:40:47;42.53;;;28.48;;
17858;SDS011;35426;30.698;104.050;2022-08-18T12:43:22;41.90;;;28.73;;
17858;SDS011;35426;30.698;104.050;2022-08-18T12:45:59;43.67;;;28.65;;
17858;SDS011;35426;30.698;104.050;2022-08-18T12:48:37;41.85;;;29.02;;
17858;SDS011;35426;30.698;104.050;2022-08-18T12:51:13;38.30;;;29.40;;
17858;SDS011;35426;30.698;104.050;2022-08-18T12:53:51;45.72;;;29.70;;
17858;SDS011;35426;30.698;104.050;2022-08-18T12:56:30;40.92;;;31.38;;
17858;SDS011;35426;30.698;104.050;2022-08-18T12:59:05;41.35;;;29.40;;
17858;SDS011;35426;30.698;104.050;2022-08-18T13:01:40;41.15;;;29.52;;
17858;SDS011;35426;30.698;104.050;2022-08-18T13:04:18;44.53;;;30.17;;
17858;SDS011;35426;30.698;104.050;2022-08-18T13:06:54;39.75;;;30.00;;
17858;SDS011;35426;30.698;104.050;2022-08-18T13:09:34;46.45;;;31.05;;
17858;SDS011;35426;30.698;104.050;2022-08-18T13:12:20;39.25;;;29.77;;
17858;SDS011;35426;30.698;104.050;2022-08-18T13:14:56;42.03;;;30.45;;
17858;SDS011;35426;30.698;104.050;2022-08-18T13:17:30;41.80;;;30.15;;
17858;SDS011;35426;30.698;104.050;2022-08-18T13:20:13;41.00;;;30.08;;
17858;SDS011;35426;30.698;104.050;2022-08-18T13:22:53;45.25;;;30.27;;
17858;SDS011;35426;30.698;104.050;2022-08-18T13:25:27;43.45;;;30.60;;
17858;SDS011;35426;30.698;104.050;2022-08-18T13:28:14;40.70;;;30.23;;
17858;SDS011;35426;30.698;104.050;2022-08-18T13:30:48;39.53;;;30.40;;
17858;SDS011;35426;30.698;104.050;2022-08-18T13:36:41;42.70;;;31.55;;
17858;SDS011;35426;30.698;104.050;2022-08-18T13:39:21;42.45;;;32.50;;
17858;SDS011;35426;30.698;104.050;2022-08-18T13:42:01;44.00;;;31.80;;
17858;SDS011;35426;30.698;104.050;2022-08-18T13:44:59;47.58;;;32.47;;
17858;SDS011;35426;30.698;104.050;2022-08-18T13:47:52;42.55;;;32.00;;
17858;SDS011;35426;30.698;104.050;2022-08-18T13:50:37;43.95;;;32.05;;
17858;SDS011;35426;30.698;104.050;2022-08-18T13:53:15;51.80;;;31.92;;
17858;SDS011;35426;30.698;104.050;2022-08-18T13:55:54;44.78;;;33.28;;
17858;SDS011;35426;30.698;104.050;2022-08-18T13:58:36;51.72;;;33.05;;
17858;SDS011;35426;30.698;104.050;2022-08-18T14:01:21;44.78;;;31.52;;
17858;SDS011;35426;30.698;104.050;2022-08-18T14:04:18;44.50;;;32.00;;
17858;SDS011;35426;30.698;104.050;2022-08-18T14:06:55;45.67;;;30.48;;
17858;SDS011;35426;30.698;104.050;2022-08-18T14:09:49;43.15;;;31.08;;
17858;SDS011;35426;30.698;104.050;2022-08-18T14:12:47;40.40;;;29.23;;
17858;SDS011;35426;30.698;104.050;2022-08-18T14:15:26;42.05;;;28.67;;
17858;SDS011;35426;30.698;104.050;2022-08-18T14:18:11;43.50;;;30.92;;
17858;SDS011;35426;30.698;104.050;2022-08-18T14:20:58;51.70;;;32.47;;
17858;SDS011;35426;30.698;104.050;2022-08-18T14:24:04;51.05;;;34.03;;
17858;SDS011;35426;30.698;104.050;2022-08-18T14:27:12;48.97;;;34.53;;
17858;SDS011;35426;30.698;104.050;2022-08-18T14:29:49;52.95;;;35.65;;
17858;SDS011;35426;30.698;104.050;2022-08-18T14:32:27;52.80;;;37.53;;
17858;SDS011;35426;30.698;104.050;2022-08-18T14:35:16;57.00;;;37.38;;
17858;SDS011;35426;30.698;104.050;2022-08-18T14:38:17;53.65;;;35.65;;
17858;SDS011;35426;30.698;104.050;2022-08-18T14:40:59;49.72;;;33.22;;
17858;SDS011;35426;30.698;104.050;2022-08-18T14:43:39;45.53;;;30.20;;
17858;SDS011;35426;30.698;104.050;2022-08-18T14:46:37;46.15;;;30.25;;
17858;SDS011;35426;30.698;104.050;2022-08-18T14:49:22;39.78;;;30.50;;
17858;SDS011;35426;30.698;104.050;2022-08-18T14:52:03;40.17;;;28.92;;
17858;SDS011;35426;30.698;104.050;2022-08-18T14:54:44;34.20;;;26.67;;
17858;SDS011;35426;30.698;104.050;2022-08-18T14:57:22;34.65;;;25.42;;
17858;SDS011;35426;30.698;104.050;2022-08-18T15:00:03;33.17;;;24.63;;
17858;SDS011;35426;30.698;104.050;2022-08-18T15:02:44;37.13;;;23.48;;
17858;SDS011;35426;30.698;104.050;2022-08-18T15:05:26;34.80;;;24.92;;
17858;SDS011;35426;30.698;104.050;2022-08-18T15:08:02;30.98;;;24.30;;
17858;SDS011;35426;30.698;104.050;2022-08-18T15:10:38;32.95;;;24.98;;
17858;SDS011;35426;30.698;104.050;2022-08-18T15:13:19;38.10;;;26.63;;
17858;SDS011;35426;30.698;104.050;2022-08-18T15:15:57;40.10;;;25.70;;
17858;SDS011;35426;30.698;104.050;2022-08-18T15:18:39;37.08;;;26.23;;
17858;SDS011;35426;30.698;104.050;2022-08-18T15:21:18;35.05;;;26.48;;
17858;SDS011;35426;30.698;104.050;2022-08-18T15:24:12;36.08;;;25.90;;
17858;SDS011;35426;30.698;104.050;2022-08-18T15:27:07;36.20;;;24.77;;
17858;SDS011;35426;30.698;104.050;2022-08-18T15:30:05;35.42;;;26.30;;
17858;SDS011;35426;30.698;104.050;2022-08-18T15:32:49;30.40;;;24.13;;
17858;SDS011;35426;30.698;104.050;2022-08-18T15:35:24;34.50;;;24.05;;
17858;SDS011;35426;30.698;104.050;2022-08-18T15:37:58;29.45;;;23.27;;